FMNN Airport Information

Runway Information
Runway 05 Length 7185 ft width 148 ft
Elevation 37 ft Threshold 0 ft Heading 43
Runway 23 Length 7185 ft Width 148 ft
Elevation 16 ft Threshold 0 ft Heading 223
Airport Frequencies
Type A/G Name A/G VOICE Frequency 548.4 MHZ
Type TWR Name TWR Frequency 118.7 MHZ
Airport Navaids
Type VOR-DME Name Fascene Frequency 117500 KHZ
Type NDB Name Fascene Frequency 381 KHZ
Airport Weather Information & NOTAM
ADDS - METARS form results

(1845 UTC 17 July 2019)
Data provider http://aviationweather.gov/metar/data/
 
Forecast for: FMNN (NOSY BE/FASCENE , KM)
Text: TAF FMNN 171700Z 1718/1818 06005KT 9999 FEW020 SCT040
Forecast period: 1800 UTC 17 July 2019 to 0700 UTC 18 July 2019
Forecast type: FROM: standard forecast or significant change
Winds: from the ENE (60 degrees) at 6 MPH (5 knots; 2.6 m/s)
Visibility: 6 or more miles 10+ km)
Ceiling: at least 12,000 feet AGL
Clouds: few clouds at 2000 feet AGL
scattered clouds at 4000 feet AGL
Weather: no significant weather forecast for this period
Text: BECMG 1807/1810 26010KT
Forecast period: 0700 to 1800 UTC 18 July 2019
Forecast type: BECOMING: Conditions expected to become as follows by 1000 UTC 18 July 2019
Winds: from the W (260 degrees) at 12 MPH (10 knots; 5.1 m/s)
Visibility: 6 or more miles 10+ km)
Ceiling: at least 12,000 feet AGL
Clouds: few clouds at 2000 feet AGL
scattered clouds at 4000 feet AGL
Weather: no significant weather forecast for this period